createdAt,value
2018-05-03T00:01:40.624Z,17.15
2018-05-03T00:04:08.217Z,14.02
2018-05-03T00:06:35.812Z,15.20
2018-05-03T00:09:03.438Z,16.95
2018-05-03T00:11:30.998Z,17.10
2018-05-03T00:13:58.589Z,15.75
2018-05-03T00:16:26.155Z,14.55
2018-05-03T00:18:53.742Z,15.75
2018-05-03T00:21:21.307Z,15.77
2018-05-03T00:23:48.890Z,17.65
2018-05-03T00:26:16.470Z,15.93
2018-05-03T00:28:44.034Z,16.35
2018-05-03T00:31:11.634Z,17.42
2018-05-03T00:33:39.214Z,16.92
2018-05-03T00:36:06.822Z,15.65
2018-05-03T00:38:34.405Z,16.52
2018-05-03T00:41:02.606Z,16.48
2018-05-03T00:43:30.169Z,16.40
2018-05-03T00:45:57.746Z,16.62
2018-05-03T00:48:25.302Z,14.07
2018-05-03T00:50:52.886Z,17.37
2018-05-03T00:53:20.442Z,17.17
2018-05-03T00:55:48.862Z,16.52
2018-05-03T00:58:16.527Z,17.98
2018-05-03T01:00:44.124Z,17.77
2018-05-03T01:03:13.219Z,17.85
2018-05-03T01:05:40.815Z,19.02
2018-05-03T01:08:08.404Z,20.37
2018-05-03T01:10:36.763Z,19.12
2018-05-03T01:13:04.397Z,16.58
2018-05-03T01:15:31.963Z,18.15
2018-05-03T01:18:00.314Z,21.00
2018-05-03T01:20:27.874Z,23.60
2018-05-03T01:22:55.459Z,22.87
2018-05-03T01:25:23.022Z,23.58
2018-05-03T01:27:50.601Z,24.27
2018-05-03T01:30:18.162Z,23.87
2018-05-03T01:32:45.751Z,23.80
2018-05-03T01:35:25.337Z,23.75
2018-05-03T01:37:53.685Z,24.45
2018-05-03T01:40:21.241Z,24.12
2018-05-03T01:42:48.822Z,25.60
2018-05-03T01:45:16.383Z,26.50
2018-05-03T01:47:43.982Z,27.55
2018-05-03T01:50:11.555Z,29.77
2018-05-03T01:52:39.822Z,28.95
2018-05-03T01:55:07.424Z,26.73
2018-05-03T01:57:35.050Z,26.95
2018-05-03T02:00:02.622Z,18.50
2018-05-03T02:02:30.177Z,17.73
2018-05-03T02:04:57.760Z,23.15
2018-05-03T02:07:25.327Z,22.73
2018-05-03T02:09:52.913Z,25.58
2018-05-03T02:12:20.483Z,26.42
2018-05-03T02:14:48.061Z,25.58
2018-05-03T02:17:15.634Z,24.90
2018-05-03T02:19:44.048Z,17.85
2018-05-03T02:22:11.629Z,15.88
2018-05-03T02:24:39.234Z,15.35
2018-05-03T02:27:07.453Z,19.27
2018-05-03T02:29:35.040Z,15.45
2018-05-03T02:32:02.672Z,14.70
2018-05-03T02:34:31.022Z,13.65
2018-05-03T02:36:59.353Z,14.20
2018-05-03T02:39:27.707Z,16.27
2018-05-03T02:41:55.278Z,22.23
2018-05-03T02:44:22.894Z,20.27
2018-05-03T02:46:51.222Z,21.90
2018-05-03T02:49:18.777Z,22.90
2018-05-03T02:51:46.358Z,23.50
2018-05-03T02:54:13.940Z,24.60
2018-05-03T02:56:41.530Z,26.73
2018-05-03T02:59:22.032Z,28.42
2018-05-03T03:01:57.691Z,27.42
2018-05-03T03:04:44.312Z,28.77
2018-05-03T03:14:21.305Z,20.52
2018-05-03T03:17:06.397Z,25.77
2018-05-03T03:20:02.230Z,27.87
2018-05-03T03:22:47.525Z,30.15
2018-05-03T03:28:54.057Z,31.87
2018-05-03T03:31:39.454Z,30.67
2018-05-03T03:34:16.880Z,29.42
2018-05-03T03:40:03.221Z,31.65
2018-05-03T03:45:45.346Z,32.53
2018-05-03T03:48:12.914Z,32.80
2018-05-03T03:50:40.515Z,32.80
2018-05-03T03:53:08.088Z,34.13
2018-05-03T03:55:36.426Z,35.20
2018-05-03T03:58:04.777Z,33.80
2018-05-03T04:00:32.357Z,33.78
2018-05-03T04:02:59.957Z,33.00
2018-05-03T04:05:27.555Z,32.75
2018-05-03T04:07:55.138Z,32.10
2018-05-03T04:10:22.745Z,32.35
2018-05-03T04:12:50.308Z,32.15
2018-05-03T04:15:17.897Z,32.83
2018-05-03T04:17:57.273Z,31.80
2018-05-03T04:20:40.348Z,33.83
2018-05-03T04:26:11.636Z,33.35
2018-05-03T04:28:39.185Z,31.37
2018-05-03T04:31:07.525Z,32.22
2018-05-03T04:33:35.080Z,30.77
2018-05-03T04:36:02.654Z,32.88
2018-05-03T04:38:30.251Z,31.45
2018-05-03T04:40:57.829Z,31.40
2018-05-03T04:43:25.460Z,31.25
2018-05-03T04:45:53.068Z,32.78
2018-05-03T04:48:21.430Z,31.80
2018-05-03T04:50:49.096Z,33.42
2018-05-03T04:53:17.933Z,33.63
2018-05-03T04:55:45.507Z,31.75
2018-05-03T04:58:13.082Z,32.95
2018-05-03T05:00:40.646Z,33.03
2018-05-03T05:03:08.222Z,31.48
2018-05-03T05:05:35.861Z,30.42
2018-05-03T05:08:03.446Z,31.90
2018-05-03T05:10:31.039Z,32.35
2018-05-03T05:12:58.630Z,28.45
2018-05-03T05:15:26.202Z,27.83
2018-05-03T05:17:53.904Z,30.70
2018-05-03T05:20:21.471Z,28.77
2018-05-03T05:22:49.805Z,27.70
2018-05-03T05:25:17.393Z,28.65
2018-05-03T05:27:44.954Z,27.00
2018-05-03T05:30:12.534Z,27.75
2018-05-03T05:32:40.248Z,27.35
2018-05-03T05:35:07.866Z,26.20
2018-05-03T05:37:36.219Z,25.55
2018-05-03T05:40:03.881Z,25.05
2018-05-03T05:42:32.326Z,27.02
2018-05-03T05:44:59.905Z,24.20
2018-05-03T05:47:27.461Z,25.62
2018-05-03T05:49:55.038Z,24.12
2018-05-03T05:52:22.599Z,23.27
2018-05-03T05:54:50.181Z,23.08
2018-05-03T05:57:17.742Z,24.30
2018-05-03T05:59:45.333Z,21.10
2018-05-03T06:02:12.895Z,21.15
2018-05-03T06:04:40.473Z,20.88
2018-05-03T06:07:08.066Z,20.88
2018-05-03T06:09:35.688Z,22.60
2018-05-03T06:12:03.753Z,21.20
2018-05-03T06:14:32.182Z,20.08
2018-05-03T06:16:59.785Z,19.40
2018-05-03T06:19:27.342Z,20.88
2018-05-03T06:21:54.927Z,19.10
2018-05-03T06:24:22.542Z,19.17
2018-05-03T06:26:51.101Z,19.23
2018-05-03T06:29:18.718Z,18.90
2018-05-03T06:31:47.076Z,19.20
2018-05-03T06:34:14.646Z,20.17
2018-05-03T06:36:42.238Z,18.85
2018-05-03T06:39:10.577Z,20.30
2018-05-03T06:41:38.233Z,17.87
2018-05-03T06:44:05.809Z,19.48
2018-05-03T06:46:33.397Z,18.98
2018-05-03T06:49:01.812Z,16.80
2018-05-03T06:51:29.438Z,19.00
2018-05-03T06:53:56.985Z,18.80
2018-05-03T06:56:26.808Z,18.62
2018-05-03T06:58:55.159Z,16.98
2018-05-03T07:01:22.721Z,16.87
2018-05-03T07:03:50.320Z,16.98
2018-05-03T07:06:17.900Z,16.48
2018-05-03T07:08:45.581Z,17.42
2018-05-03T07:11:13.267Z,15.90
2018-05-03T07:13:41.624Z,16.05
2018-05-03T07:16:09.195Z,16.12
2018-05-03T07:18:37.549Z,18.05
2018-05-03T07:21:05.110Z,16.92
2018-05-03T07:23:33.471Z,18.15
2018-05-03T07:26:01.814Z,17.08
2018-05-03T07:28:29.418Z,17.08
2018-05-03T07:30:56.982Z,16.62
2018-05-03T07:33:24.541Z,17.98
2018-05-03T07:35:52.121Z,18.65
2018-05-03T07:38:19.694Z,15.95
2018-05-03T07:40:47.384Z,17.10
2018-05-03T07:43:15.682Z,16.12
2018-05-03T07:45:43.271Z,16.42
2018-05-03T07:48:11.603Z,15.15
2018-05-03T07:50:39.209Z,16.02
2018-05-03T07:53:07.430Z,14.75
2018-05-03T07:55:35.786Z,15.73
2018-05-03T07:58:03.350Z,14.18
2018-05-03T08:00:30.938Z,14.38
2018-05-03T08:02:58.504Z,11.95
2018-05-03T08:05:26.098Z,13.50
2018-05-03T08:07:54.429Z,12.65
2018-05-03T08:10:22.023Z,12.45
2018-05-03T08:12:49.601Z,10.60
2018-05-03T08:15:17.976Z,11.65
2018-05-03T08:17:45.561Z,10.73
2018-05-03T08:20:13.182Z,10.52
2018-05-03T08:22:40.751Z,9.93
2018-05-03T08:25:09.101Z,11.15
2018-05-03T08:27:36.746Z,9.38
2018-05-03T08:30:04.338Z,9.50
2018-05-03T08:32:31.905Z,10.55
2018-05-03T08:34:59.510Z,11.25
2018-05-03T08:37:27.073Z,10.48
2018-05-03T08:39:54.641Z,12.32
2018-05-03T08:42:23.448Z,11.50
2018-05-03T08:44:51.178Z,11.27
2018-05-03T08:47:18.766Z,10.52
2018-05-03T08:49:46.354Z,11.20
2018-05-03T08:52:13.946Z,10.73
2018-05-03T08:54:41.524Z,10.30
2018-05-03T08:57:09.117Z,10.50
2018-05-03T08:59:37.455Z,12.07
2018-05-03T09:02:05.046Z,10.40
2018-05-03T09:04:32.637Z,11.07
2018-05-03T09:07:01.020Z,12.00
2018-05-03T09:09:28.594Z,10.52
2018-05-03T09:11:56.170Z,10.93
2018-05-03T09:14:23.785Z,10.85
2018-05-03T09:16:51.363Z,12.07
2018-05-03T09:19:18.959Z,11.48
2018-05-03T09:21:47.299Z,10.52
2018-05-03T09:24:14.885Z,11.90
2018-05-03T09:26:42.453Z,11.88
2018-05-03T09:29:10.039Z,11.15
2018-05-03T09:31:37.610Z,12.73
2018-05-03T09:34:05.192Z,12.05
2018-05-03T09:36:32.761Z,11.38
2018-05-03T09:39:00.370Z,11.20
2018-05-03T09:41:27.947Z,11.95
2018-05-03T09:43:55.570Z,11.35
2018-05-03T09:46:23.158Z,12.23
2018-05-03T09:48:50.866Z,11.05
2018-05-03T09:51:18.462Z,11.05
2018-05-03T09:53:46.828Z,11.40
2018-05-03T09:56:14.482Z,11.05
2018-05-03T09:58:42.284Z,11.55
2018-05-03T10:01:09.875Z,11.45
2018-05-03T10:03:38.208Z,11.77
2018-05-03T10:06:05.796Z,12.10
2018-05-03T10:08:33.381Z,10.60
2018-05-03T10:11:00.966Z,11.90
2018-05-03T10:13:28.536Z,12.43
2018-05-03T10:15:56.121Z,9.40
2018-05-03T10:18:24.469Z,10.50
2018-05-03T10:20:52.070Z,10.90
2018-05-03T10:23:19.649Z,10.10
2018-05-03T10:25:48.019Z,10.07
2018-05-03T10:28:15.736Z,10.93
2018-05-03T10:30:44.109Z,11.43
2018-05-03T10:33:12.457Z,10.20
2018-05-03T10:35:40.226Z,9.90
2018-05-03T10:38:07.750Z,9.47
2018-05-03T10:40:35.318Z,10.10
2018-05-03T10:43:02.970Z,9.67
2018-05-03T10:45:30.560Z,10.33
2018-05-03T10:47:58.942Z,9.27
2018-05-03T10:50:26.610Z,10.67
2018-05-03T10:52:54.201Z,10.80
2018-05-03T10:55:21.783Z,9.90
2018-05-03T10:57:50.134Z,10.20
2018-05-03T11:00:17.725Z,10.27
2018-05-03T11:02:45.321Z,10.23
2018-05-03T11:05:13.701Z,11.17
2018-05-03T11:07:41.319Z,10.60
2018-05-03T11:10:08.886Z,10.50
2018-05-03T11:12:36.466Z,10.03
2018-05-03T11:15:04.021Z,10.37
2018-05-03T11:17:31.629Z,10.90
2018-05-03T11:19:59.201Z,12.13
2018-05-03T11:22:26.768Z,10.97
2018-05-03T11:24:54.350Z,10.50
2018-05-03T11:27:22.686Z,10.80
2018-05-03T11:29:51.041Z,12.10
2018-05-03T11:32:18.621Z,9.93
2018-05-03T11:34:47.177Z,11.10
2018-05-03T11:37:14.806Z,10.43
2018-05-03T11:39:43.166Z,11.27
2018-05-03T11:44:45.042Z,12.20
2018-05-03T11:47:13.282Z,12.43
2018-05-03T11:49:40.879Z,11.87
2018-05-03T11:52:08.449Z,13.80
2018-05-03T11:54:36.793Z,12.97
2018-05-03T11:57:05.125Z,14.03
2018-05-03T11:59:33.473Z,12.20
2018-05-03T12:02:02.256Z,13.03
2018-05-03T12:04:29.842Z,14.53
2018-05-03T12:06:57.468Z,13.50
2018-05-03T12:09:25.814Z,12.87
2018-05-03T12:11:54.191Z,13.90
2018-05-03T12:14:21.766Z,13.83
2018-05-03T12:16:50.122Z,14.60
2018-05-03T12:19:17.695Z,13.93
2018-05-03T12:21:45.277Z,12.83
2018-05-03T12:24:12.847Z,13.33
2018-05-03T12:26:40.425Z,13.60
2018-05-03T12:29:07.985Z,14.23
2018-05-03T12:31:35.570Z,13.27
2018-05-03T12:34:03.132Z,13.57
2018-05-03T12:36:30.729Z,12.63
2018-05-03T12:38:58.331Z,12.13
2018-05-03T12:41:25.905Z,12.37
2018-05-03T12:43:53.522Z,11.87
2018-05-03T12:46:21.113Z,13.63
2018-05-03T12:48:49.482Z,13.90
2018-05-03T12:51:17.139Z,14.43
2018-05-03T12:53:44.782Z,14.07
2018-05-03T12:56:12.345Z,14.23
2018-05-03T12:58:39.921Z,13.87
2018-05-03T13:01:07.485Z,15.13
2018-05-03T13:03:35.067Z,12.63
2018-05-03T13:06:02.630Z,13.30
2018-05-03T13:08:30.217Z,13.87
2018-05-03T13:10:57.789Z,13.70
2018-05-03T13:13:25.373Z,14.50
2018-05-03T13:15:52.944Z,13.60
2018-05-03T13:18:20.528Z,12.43
2018-05-03T13:20:48.894Z,14.97
2018-05-03T13:23:16.535Z,16.20
2018-05-03T13:25:44.243Z,16.33
2018-05-03T13:28:11.765Z,17.10
2018-05-03T13:30:39.345Z,15.80
2018-05-03T13:33:06.909Z,15.20
2018-05-03T13:35:34.493Z,16.03
2018-05-03T13:38:02.062Z,15.20
2018-05-03T13:40:29.649Z,15.93
2018-05-03T13:42:57.222Z,15.37
2018-05-03T13:45:24.797Z,14.47
2018-05-03T13:47:52.369Z,14.87
2018-05-03T13:50:20.746Z,15.70
2018-05-03T13:52:49.125Z,14.87
2018-05-03T13:55:16.787Z,16.20
2018-05-03T13:57:44.387Z,16.30
2018-05-03T14:00:11.974Z,16.43
2018-05-03T14:02:39.557Z,15.60
2018-05-03T14:05:07.120Z,14.30
2018-05-03T14:07:34.705Z,13.20
2018-05-03T14:10:02.270Z,14.63
2018-05-03T14:12:29.861Z,14.87
2018-05-03T14:14:57.431Z,14.60
2018-05-03T14:17:25.023Z,13.80
2018-05-03T14:19:53.396Z,13.07
2018-05-03T14:22:23.950Z,11.93
2018-05-03T14:24:52.322Z,11.80
2018-05-03T14:27:19.921Z,13.10
2018-05-03T14:29:48.454Z,14.40
2018-05-03T14:32:16.110Z,13.57
2018-05-03T14:34:43.710Z,12.37
2018-05-03T14:37:11.338Z,13.10
2018-05-03T14:39:39.666Z,13.30
2018-05-03T14:42:07.232Z,13.70
2018-05-03T14:44:34.818Z,13.90
2018-05-03T14:47:03.682Z,13.57
2018-05-03T14:49:32.038Z,13.67
2018-05-03T14:52:00.408Z,13.50
2018-05-03T14:54:28.630Z,12.90
2018-05-03T14:56:56.273Z,13.83
2018-05-03T14:59:23.885Z,12.90
2018-05-03T15:01:54.461Z,12.47
2018-05-03T15:04:22.319Z,12.63
2018-05-03T15:06:50.126Z,12.30
2018-05-03T15:09:17.932Z,12.40
2018-05-03T15:11:45.494Z,13.10
2018-05-03T15:14:13.081Z,13.30
2018-05-03T15:16:40.648Z,12.30
2018-05-03T15:19:08.233Z,12.20
2018-05-03T15:21:35.803Z,12.87
2018-05-03T15:24:03.413Z,13.50
2018-05-03T15:26:31.109Z,14.83
2018-05-03T15:28:58.885Z,13.83
2018-05-03T15:31:26.568Z,13.70
2018-05-03T15:33:54.227Z,15.20
2018-05-03T15:36:21.758Z,17.10
2018-05-03T15:38:49.318Z,13.37
2018-05-03T15:41:16.904Z,13.60
2018-05-03T15:43:44.465Z,12.90
2018-05-03T15:46:12.049Z,12.87
2018-05-03T15:48:40.401Z,11.60
2018-05-03T15:51:07.994Z,11.80
2018-05-03T15:53:35.573Z,12.10
2018-05-03T15:56:03.164Z,11.90
2018-05-03T15:58:31.513Z,12.47
2018-05-03T16:00:59.128Z,11.90
2018-05-03T16:03:27.483Z,11.97
2018-05-03T16:05:55.094Z,11.73
2018-05-03T16:08:23.427Z,11.73
2018-05-03T16:10:51.046Z,11.93
2018-05-03T16:13:18.609Z,12.20
2018-05-03T16:15:46.177Z,11.57
2018-05-03T16:18:13.759Z,11.10
2018-05-03T16:20:41.327Z,11.30
2018-05-03T16:23:08.913Z,11.30
2018-05-03T16:25:37.154Z,10.80
2018-05-03T16:28:04.753Z,11.63
2018-05-03T16:30:32.344Z,11.20
2018-05-03T16:32:59.945Z,11.60
2018-05-03T16:35:27.514Z,11.83
2018-05-03T16:37:55.129Z,11.23
2018-05-03T16:40:22.702Z,11.20
2018-05-03T16:42:50.281Z,10.77
2018-05-03T16:45:17.842Z,12.37
2018-05-03T16:47:45.421Z,11.67
2018-05-03T16:50:12.989Z,13.27
2018-05-03T16:52:40.580Z,13.30
2018-05-03T16:55:08.149Z,11.70
2018-05-03T16:57:35.729Z,13.00
2018-05-03T17:00:03.314Z,13.40
2018-05-03T17:02:31.702Z,12.47
2018-05-03T17:04:59.316Z,13.30
2018-05-03T17:07:26.933Z,14.53
2018-05-03T17:09:54.605Z,14.10
2018-05-03T17:12:22.174Z,12.87
2018-05-03T17:14:49.749Z,13.87
2018-05-03T17:17:17.309Z,13.50
2018-05-03T17:19:44.889Z,12.80
2018-05-03T17:22:12.453Z,12.10
2018-05-03T17:24:40.030Z,13.07
2018-05-03T17:27:07.598Z,12.23
2018-05-03T17:29:35.185Z,12.30
2018-05-03T17:32:02.803Z,12.53
2018-05-03T17:34:30.397Z,12.00
2018-05-03T17:36:58.014Z,12.10
2018-05-03T17:39:25.728Z,11.80
2018-05-03T17:41:53.315Z,11.47
2018-05-03T17:44:20.916Z,11.50
2018-05-03T17:46:49.483Z,11.70
2018-05-03T17:49:17.081Z,12.00
2018-05-03T17:51:44.650Z,11.97
2018-05-03T17:54:12.214Z,11.80
2018-05-03T17:56:39.797Z,11.60
2018-05-03T17:59:07.353Z,12.10
2018-05-03T18:01:34.945Z,12.00
2018-05-03T18:04:02.528Z,11.43
2018-05-03T18:06:30.162Z,12.67
2018-05-03T18:08:57.783Z,11.43
2018-05-03T18:11:26.168Z,11.63
2018-05-03T18:13:53.746Z,11.97
2018-05-03T18:16:21.380Z,11.23
2018-05-03T18:18:48.925Z,12.40
2018-05-03T18:21:16.515Z,14.00
2018-05-03T18:23:44.073Z,20.30
2018-05-03T18:26:11.707Z,19.10
2018-05-03T18:28:39.237Z,14.87
2018-05-03T18:31:06.849Z,18.70
2018-05-03T18:33:34.417Z,14.90
2018-05-03T18:36:02.002Z,13.97
2018-05-03T18:38:29.605Z,11.80
2018-05-03T18:40:57.963Z,12.27
2018-05-03T18:43:25.578Z,11.00
2018-05-03T18:45:53.158Z,11.90
2018-05-03T18:48:20.737Z,11.27
2018-05-03T18:50:48.302Z,11.43
2018-05-03T18:53:15.886Z,10.83
2018-05-03T18:55:43.441Z,25.40
2018-05-03T18:58:11.029Z,12.00
2018-05-03T19:00:38.605Z,11.52
2018-05-03T19:03:06.189Z,10.60
2018-05-03T19:05:35.815Z,11.85
2018-05-03T19:08:03.438Z,12.47
2018-05-03T19:10:31.022Z,11.05
2018-05-03T19:12:58.660Z,11.00
2018-05-03T19:15:27.073Z,11.10
2018-05-03T19:17:54.678Z,11.32
2018-05-03T19:20:22.273Z,10.60
2018-05-03T19:22:49.865Z,10.60
2018-05-03T19:25:17.456Z,11.05
2018-05-03T19:27:45.792Z,10.83
2018-05-03T19:30:13.377Z,10.90
2018-05-03T19:32:40.950Z,10.07
2018-05-03T19:35:08.559Z,9.55
2018-05-03T19:37:36.974Z,11.47
2018-05-03T19:40:04.601Z,10.40
2018-05-03T19:42:32.200Z,9.00
2018-05-03T19:45:00.557Z,9.90
2018-05-03T19:47:28.138Z,10.10
2018-05-03T19:49:55.708Z,9.40
2018-05-03T19:52:23.276Z,8.65
2018-05-03T19:54:50.930Z,8.70
2018-05-03T19:57:20.228Z,9.10
2018-05-03T19:59:47.799Z,12.20
2018-05-03T20:02:15.378Z,9.80
2018-05-03T20:04:42.945Z,8.47
2018-05-03T20:07:10.541Z,8.60
2018-05-03T20:09:38.127Z,10.27
2018-05-03T20:12:05.722Z,8.20
2018-05-03T20:14:33.291Z,9.00
2018-05-03T20:17:01.658Z,9.60
2018-05-03T20:19:29.233Z,9.03
2018-05-03T20:21:56.822Z,10.18
2018-05-03T20:24:25.010Z,8.75
2018-05-03T20:26:52.594Z,9.10
2018-05-03T20:29:20.191Z,9.63
2018-05-03T20:31:48.981Z,8.50
2018-05-03T20:34:17.321Z,8.30
2018-05-03T20:36:44.917Z,8.03
2018-05-03T20:39:12.506Z,9.23
2018-05-03T20:41:40.871Z,9.13
2018-05-03T20:44:08.442Z,10.20
2018-05-03T20:46:36.006Z,9.30
2018-05-03T20:49:03.585Z,9.13
2018-05-03T20:51:31.149Z,8.27
2018-05-03T20:53:59.503Z,8.10
2018-05-03T20:56:27.120Z,8.70
2018-05-03T20:58:54.682Z,7.00
2018-05-03T21:01:22.266Z,6.40
2018-05-03T21:03:50.846Z,7.60
2018-05-03T21:06:18.418Z,6.80
2018-05-03T21:08:46.007Z,7.93
2018-05-03T21:11:13.598Z,6.68
2018-05-03T21:13:41.983Z,6.40
2018-05-03T21:16:10.321Z,6.47
2018-05-03T21:18:37.905Z,6.53
2018-05-03T21:21:05.478Z,5.30
2018-05-03T21:23:33.062Z,4.62
2018-05-03T21:26:00.655Z,5.10
2018-05-03T21:28:28.265Z,4.60
2018-05-03T21:30:55.826Z,4.50
2018-05-03T21:33:25.134Z,4.45
2018-05-03T21:35:53.477Z,4.20
2018-05-03T21:38:21.082Z,4.40
2018-05-03T21:40:49.450Z,3.95
2018-05-03T21:43:17.041Z,4.30
2018-05-03T21:45:44.646Z,4.15
2018-05-03T21:48:12.240Z,3.67
2018-05-03T21:50:39.825Z,2.97
2018-05-03T21:53:07.390Z,3.50
2018-05-03T21:55:34.969Z,3.12
2018-05-03T21:58:02.530Z,2.60
2018-05-03T22:00:30.109Z,2.83
2018-05-03T22:02:57.675Z,2.30
2018-05-03T22:05:25.262Z,3.15
2018-05-03T22:07:52.822Z,3.25
2018-05-03T22:10:20.440Z,2.78
2018-05-03T22:12:48.018Z,3.47
2018-05-03T22:15:15.638Z,2.83
2018-05-03T22:17:43.262Z,2.45
2018-05-03T22:20:11.630Z,3.20
2018-05-03T22:22:39.225Z,2.80
2018-05-03T22:25:06.781Z,3.20
2018-05-03T22:27:34.367Z,3.50
2018-05-03T22:30:01.934Z,3.10
2018-05-03T22:32:29.517Z,2.75
2018-05-03T22:34:57.081Z,2.72
2018-05-03T22:37:24.665Z,2.92
2018-05-03T22:39:52.242Z,3.10
2018-05-03T22:42:20.602Z,2.62
2018-05-03T22:44:48.214Z,3.00
2018-05-03T22:47:15.850Z,2.90
2018-05-03T22:49:43.465Z,2.70
2018-05-03T22:52:11.891Z,2.50
2018-05-03T22:54:39.466Z,2.97
2018-05-03T22:57:07.037Z,2.62
2018-05-03T22:59:34.598Z,2.70
2018-05-03T23:02:02.190Z,2.90
2018-05-03T23:04:29.754Z,2.67
2018-05-03T23:06:57.319Z,3.05
2018-05-03T23:09:24.897Z,2.35
2018-05-03T23:11:52.459Z,2.45
2018-05-03T23:14:20.081Z,2.75
2018-05-03T23:16:47.653Z,2.65
2018-05-03T23:19:15.312Z,2.55
2018-05-03T23:21:42.926Z,2.30
2018-05-03T23:24:11.385Z,2.40
2018-05-03T23:26:38.946Z,2.10
2018-05-03T23:29:06.522Z,1.60
2018-05-03T23:31:34.849Z,2.25
2018-05-03T23:34:03.193Z,1.75
2018-05-03T23:36:30.749Z,2.60
2018-05-03T23:38:58.326Z,2.08
2018-05-03T23:41:25.886Z,2.00
2018-05-03T23:43:53.461Z,2.28
2018-05-03T23:46:21.013Z,2.30
2018-05-03T23:48:48.642Z,1.83
2018-05-03T23:51:16.290Z,2.35
2018-05-03T23:53:43.924Z,1.90
2018-05-03T23:56:12.507Z,2.22
2018-05-03T23:58:40.135Z,1.50
